createdAt,value
2023-03-29T00:01:11.843Z,96.80
2023-03-29T00:05:16.093Z,96.70
2023-03-29T00:08:59.625Z,96.70
2023-03-29T00:12:42.573Z,96.50
2023-03-29T00:16:32.184Z,96.40
2023-03-29T00:20:18.969Z,96.60
2023-03-29T00:24:02.148Z,96.60
2023-03-29T00:27:43.895Z,96.70
2023-03-29T00:31:26.511Z,96.80
2023-03-29T00:35:09.110Z,96.80
2023-03-29T00:38:50.989Z,96.90
2023-03-29T00:42:32.725Z,96.90
2023-03-29T00:46:15.359Z,96.80
2023-03-29T00:50:01.680Z,96.80
2023-03-29T00:53:48.769Z,96.90
2023-03-29T00:57:31.275Z,96.90
2023-03-29T01:01:19.511Z,96.80
2023-03-29T01:05:25.952Z,97.00
2023-03-29T01:09:12.581Z,97.70
2023-03-29T01:13:01.920Z,97.00
2023-03-29T01:16:43.677Z,97.00
2023-03-29T01:20:43.304Z,96.90
2023-03-29T01:24:50.421Z,97.30
2023-03-29T01:28:43.720Z,97.70
2023-03-29T01:32:35.005Z,97.20
2023-03-29T01:36:23.353Z,97.10
2023-03-29T01:40:06.322Z,97.10
2023-03-29T01:44:11.165Z,97.00
2023-03-29T01:48:03.737Z,97.80
2023-03-29T01:51:53.355Z,97.70
2023-03-29T01:55:41.460Z,97.20
2023-03-29T01:59:29.615Z,97.10
2023-03-29T02:03:15.077Z,97.10
2023-03-29T02:06:59.428Z,97.00
2023-03-29T02:10:41.716Z,96.90
2023-03-29T02:14:24.871Z,96.80
2023-03-29T02:18:07.150Z,96.80
2023-03-29T02:22:07.326Z,96.80
2023-03-29T02:25:53.565Z,97.40
2023-03-29T02:29:35.425Z,96.90
2023-03-29T02:33:23.935Z,96.90
2023-03-29T02:37:11.772Z,97.10
2023-03-29T02:40:55.604Z,97.10
2023-03-29T02:44:40.759Z,97.10
2023-03-29T02:48:25.340Z,97.20
2023-03-29T02:52:12.454Z,97.20
2023-03-29T02:55:55.423Z,97.10
2023-03-29T02:59:38.627Z,97.00
2023-03-29T03:03:20.771Z,96.90
2023-03-29T03:07:05.188Z,96.90
2023-03-29T03:10:47.597Z,97.10
2023-03-29T03:14:29.668Z,97.10
2023-03-29T03:18:12.621Z,97.10
2023-03-29T03:21:54.329Z,97.10
2023-03-29T03:25:36.221Z,97.10
2023-03-29T03:29:18.023Z,97.10
2023-03-29T03:33:00.170Z,97.20
2023-03-29T03:36:42.003Z,97.20
2023-03-29T03:40:24.088Z,97.20
2023-03-29T03:44:06.930Z,97.20
2023-03-29T03:47:49.787Z,97.30
2023-03-29T03:51:32.116Z,97.20
2023-03-29T03:55:14.409Z,97.30
2023-03-29T03:58:57.006Z,97.30
2023-03-29T04:02:38.808Z,97.20
2023-03-29T04:06:20.636Z,97.30
2023-03-29T04:10:02.519Z,97.30
2023-03-29T04:13:44.335Z,97.20
2023-03-29T04:17:26.175Z,97.20
2023-03-29T04:21:07.909Z,97.20
2023-03-29T04:24:49.625Z,97.20
2023-03-29T04:28:31.329Z,97.10
2023-03-29T04:32:13.085Z,97.20
2023-03-29T04:35:54.896Z,97.20
2023-03-29T04:39:37.882Z,97.10
2023-03-29T04:43:20.263Z,97.10
2023-03-29T04:47:02.049Z,97.20
2023-03-29T04:50:47.803Z,97.10
2023-03-29T04:54:29.573Z,97.20
2023-03-29T04:58:11.577Z,97.10
2023-03-29T05:01:54.742Z,97.10
2023-03-29T05:05:36.481Z,97.10
2023-03-29T05:09:18.184Z,97.50
2023-03-29T05:12:59.964Z,97.00
2023-03-29T05:16:42.290Z,97.00
2023-03-29T05:20:25.040Z,97.00
2023-03-29T05:24:09.935Z,97.00
2023-03-29T05:27:52.164Z,97.10
2023-03-29T05:31:34.112Z,97.00
2023-03-29T05:35:16.170Z,97.00
2023-03-29T05:38:57.964Z,97.00
2023-03-29T05:42:39.811Z,97.00
2023-03-29T05:46:21.668Z,97.00
2023-03-29T05:50:03.902Z,97.00
2023-03-29T05:53:45.795Z,97.10
2023-03-29T05:57:27.582Z,97.10
2023-03-29T06:01:17.958Z,97.10
2023-03-29T06:04:59.902Z,97.60
2023-03-29T06:08:42.036Z,97.10
2023-03-29T06:12:24.872Z,97.20
2023-03-29T06:16:07.336Z,97.20
2023-03-29T06:19:49.100Z,97.20
2023-03-29T06:23:30.984Z,97.30
2023-03-29T06:27:12.873Z,97.20
2023-03-29T06:30:56.536Z,97.30
2023-03-29T06:34:38.766Z,97.30
2023-03-29T06:38:23.437Z,97.40
2023-03-29T06:42:20.028Z,97.50
2023-03-29T06:46:02.971Z,97.50
2023-03-29T06:49:44.775Z,97.50
2023-03-29T06:53:27.287Z,97.50
2023-03-29T06:57:09.253Z,97.60
2023-03-29T07:00:51.682Z,97.60
2023-03-29T07:04:35.177Z,97.60
2023-03-29T07:08:17.145Z,97.70
2023-03-29T07:11:59.731Z,97.60
2023-03-29T07:15:43.271Z,97.60
2023-03-29T07:19:27.294Z,97.60
2023-03-29T07:23:09.636Z,97.70
2023-03-29T07:27:03.147Z,97.70
2023-03-29T07:30:46.438Z,97.70
2023-03-29T07:34:30.025Z,97.70
2023-03-29T07:38:12.014Z,97.80
2023-03-29T07:41:56.612Z,97.80
2023-03-29T07:45:40.679Z,97.80
2023-03-29T07:49:22.507Z,97.90
2023-03-29T07:53:04.491Z,97.80
2023-03-29T07:56:47.652Z,97.90
2023-03-29T08:00:29.444Z,97.90
2023-03-29T08:04:11.314Z,98.30
2023-03-29T08:07:53.100Z,97.80
2023-03-29T08:11:34.843Z,97.80
2023-03-29T08:15:16.923Z,97.80
2023-03-29T08:18:59.576Z,97.80
2023-03-29T08:22:41.542Z,97.80
2023-03-29T08:26:23.280Z,97.80
2023-03-29T08:30:08.069Z,97.80
2023-03-29T08:33:49.801Z,97.90
2023-03-29T08:37:32.610Z,98.00
2023-03-29T08:41:36.643Z,98.10
2023-03-29T08:45:51.061Z,98.60
2023-03-29T08:49:35.248Z,98.90
2023-03-29T08:53:25.784Z,98.20
2023-03-29T08:57:17.001Z,98.40
2023-03-29T09:01:01.510Z,98.60
2023-03-29T09:04:43.778Z,98.40
2023-03-29T09:08:26.050Z,98.40
2023-03-29T09:12:11.454Z,98.50
2023-03-29T09:16:06.729Z,98.60
2023-03-29T09:20:19.861Z,98.80
2023-03-29T09:24:15.631Z,99.10
2023-03-29T09:28:12.614Z,98.50
2023-03-29T09:31:56.217Z,99.10
2023-03-29T09:35:44.989Z,98.50
2023-03-29T09:39:28.238Z,98.60
2023-03-29T09:43:14.108Z,98.70
2023-03-29T09:47:08.511Z,98.80
2023-03-29T09:50:51.624Z,98.70
2023-03-29T09:54:33.320Z,98.70
2023-03-29T09:58:20.026Z,99.30
2023-03-29T10:02:07.681Z,98.80
2023-03-29T10:05:53.280Z,98.80
2023-03-29T10:09:35.632Z,98.60
2023-03-29T10:13:23.266Z,98.70
2023-03-29T10:17:13.868Z,98.90
2023-03-29T10:21:02.727Z,98.70
2023-03-29T10:24:51.651Z,98.90
2023-03-29T10:28:36.533Z,98.90
2023-03-29T10:32:27.767Z,98.80
2023-03-29T10:36:15.602Z,99.20
2023-03-29T10:39:58.183Z,98.80
2023-03-29T10:43:45.386Z,98.70
2023-03-29T10:47:34.234Z,98.90
2023-03-29T10:51:18.010Z,98.90
2023-03-29T10:55:00.410Z,98.80
2023-03-29T10:59:14.339Z,98.80
2023-03-29T11:03:16.223Z,99.50
2023-03-29T11:07:29.770Z,99.50
2023-03-29T11:11:36.615Z,99.50
2023-03-29T11:15:48.050Z,99.20
2023-03-29T11:19:46.730Z,99.50
2023-03-29T11:23:49.855Z,99.20
2023-03-29T11:27:43.917Z,99.30
2023-03-29T11:31:40.958Z,99.30
2023-03-29T11:35:42.675Z,99.10
2023-03-29T11:40:15.385Z,99.00
2023-03-29T11:44:15.891Z,99.20
2023-03-29T11:48:00.337Z,99.00
2023-03-29T11:51:48.892Z,98.80
2023-03-29T11:55:35.581Z,98.70
2023-03-29T11:59:31.465Z,98.70
2023-03-29T12:03:38.577Z,98.80
2023-03-29T12:07:44.197Z,98.80
2023-03-29T12:11:48.485Z,98.90
2023-03-29T12:15:35.451Z,98.60
2023-03-29T12:19:31.185Z,98.60
2023-03-29T12:23:17.661Z,98.60
2023-03-29T12:27:30.287Z,98.50
2023-03-29T12:31:24.466Z,98.50
2023-03-29T12:35:26.228Z,98.60
2023-03-29T12:39:19.358Z,98.70
2023-03-29T12:43:07.750Z,98.70
2023-03-29T12:46:58.113Z,98.40
2023-03-29T12:50:52.397Z,98.40
2023-03-29T12:54:37.508Z,98.80
2023-03-29T12:58:43.009Z,98.80
2023-03-29T13:02:27.383Z,99.10
2023-03-29T13:06:11.345Z,98.60
2023-03-29T13:10:09.360Z,98.50
2023-03-29T13:13:52.339Z,98.60
2023-03-29T13:17:44.253Z,98.60
2023-03-29T13:21:41.483Z,98.50
2023-03-29T13:25:44.541Z,98.50
2023-03-29T13:29:47.839Z,98.20
2023-03-29T13:33:44.949Z,98.20
2023-03-29T13:37:32.300Z,98.30
2023-03-29T13:41:31.770Z,98.00
2023-03-29T13:45:29.659Z,98.40
2023-03-29T13:49:32.199Z,98.30
2023-03-29T13:53:53.409Z,98.60
2023-03-29T13:57:37.704Z,98.60
2023-03-29T14:01:26.154Z,98.40
2023-03-29T14:05:12.407Z,98.60
2023-03-29T14:08:55.271Z,98.90
2023-03-29T14:12:41.705Z,99.00
2023-03-29T14:16:28.270Z,99.10
2023-03-29T14:20:18.486Z,99.10
2023-03-29T14:24:02.175Z,99.10
2023-03-29T14:27:44.305Z,99.10
2023-03-29T14:31:31.215Z,99.10
2023-03-29T14:35:13.007Z,99.10
2023-03-29T14:39:02.862Z,99.00
2023-03-29T14:42:46.606Z,98.90
2023-03-29T14:46:28.725Z,98.90
2023-03-29T14:50:28.524Z,98.90
2023-03-29T14:54:20.866Z,98.90
2023-03-29T14:58:02.735Z,98.90
2023-03-29T15:01:44.859Z,98.90
2023-03-29T15:05:40.114Z,98.80
2023-03-29T15:09:29.838Z,98.80
2023-03-29T15:13:18.632Z,98.80
2023-03-29T15:17:23.857Z,98.80
2023-03-29T15:21:08.034Z,98.70
2023-03-29T15:24:49.893Z,98.60
2023-03-29T15:28:34.914Z,98.60
2023-03-29T15:32:24.894Z,98.90
2023-03-29T15:36:08.905Z,98.50
2023-03-29T15:39:51.037Z,98.50
2023-03-29T15:43:32.856Z,98.40
2023-03-29T15:47:15.018Z,98.50
2023-03-29T15:50:59.261Z,98.40
2023-03-29T15:54:43.784Z,98.40
2023-03-29T15:58:27.855Z,98.50
2023-03-29T16:02:16.281Z,98.50
2023-03-29T16:05:58.346Z,98.80
2023-03-29T16:09:40.329Z,98.50
2023-03-29T16:13:22.063Z,98.50
2023-03-29T16:17:04.712Z,98.50
2023-03-29T16:20:46.618Z,98.40
2023-03-29T16:24:34.056Z,98.40
2023-03-29T16:28:15.809Z,98.50
2023-03-29T16:32:00.945Z,98.50
2023-03-29T16:35:43.038Z,98.50
2023-03-29T16:39:24.867Z,98.60
2023-03-29T16:43:06.681Z,98.50
2023-03-29T16:46:48.912Z,98.50
2023-03-29T16:50:30.809Z,98.40
2023-03-29T16:54:13.660Z,98.40
2023-03-29T16:57:55.370Z,98.50
2023-03-29T17:01:37.392Z,98.50
2023-03-29T17:05:19.479Z,98.50
2023-03-29T17:09:01.309Z,98.50
2023-03-29T17:12:45.971Z,98.40
2023-03-29T17:16:29.082Z,98.60
2023-03-29T17:20:14.470Z,98.80
2023-03-29T17:23:56.285Z,98.50
2023-03-29T17:27:38.048Z,98.50
2023-03-29T17:31:19.944Z,98.60
2023-03-29T17:35:01.992Z,98.80
2023-03-29T17:38:43.809Z,98.50
2023-03-29T17:42:25.708Z,98.50
2023-03-29T17:46:07.550Z,98.60
2023-03-29T17:49:49.240Z,98.60
2023-03-29T17:53:31.174Z,98.60
2023-03-29T17:57:12.944Z,98.70
2023-03-29T18:00:54.764Z,98.60
2023-03-29T18:04:36.675Z,98.70
2023-03-29T18:08:18.925Z,98.70
2023-03-29T18:12:00.730Z,98.70
2023-03-29T18:15:45.040Z,98.70
2023-03-29T18:19:27.348Z,98.70
2023-03-29T18:23:09.072Z,98.70
2023-03-29T18:26:50.873Z,98.80
2023-03-29T18:30:32.711Z,98.80
2023-03-29T18:34:14.617Z,98.70
2023-03-29T18:37:56.352Z,99.00
2023-03-29T18:41:38.411Z,98.80
2023-03-29T18:45:21.421Z,98.80
2023-03-29T18:49:03.356Z,98.80
2023-03-29T18:52:45.373Z,98.80
2023-03-29T18:56:28.767Z,98.70
2023-03-29T19:00:13.576Z,98.80
2023-03-29T19:04:01.526Z,98.80
2023-03-29T19:07:44.073Z,98.90
2023-03-29T19:11:28.817Z,98.80
2023-03-29T19:15:11.775Z,98.90
2023-03-29T19:18:53.616Z,98.90
2023-03-29T19:22:35.792Z,98.80
2023-03-29T19:26:17.643Z,98.80
2023-03-29T19:30:05.740Z,98.80
2023-03-29T19:33:49.098Z,98.80
2023-03-29T19:37:30.964Z,98.80
2023-03-29T19:41:12.828Z,99.10
2023-03-29T19:44:54.524Z,98.90
2023-03-29T19:48:37.302Z,98.90
2023-03-29T19:52:20.228Z,98.80
2023-03-29T19:56:02.713Z,98.80
2023-03-29T19:59:44.607Z,98.70
2023-03-29T20:03:28.475Z,98.80
2023-03-29T20:07:10.425Z,98.80
2023-03-29T20:11:06.617Z,98.90
2023-03-29T20:14:48.679Z,99.30
2023-03-29T20:18:30.821Z,98.90
2023-03-29T20:22:13.048Z,99.30
2023-03-29T20:25:54.842Z,98.90
2023-03-29T20:29:36.599Z,99.00
2023-03-29T20:33:21.464Z,98.90
2023-03-29T20:37:03.603Z,99.00
2023-03-29T20:40:45.389Z,99.00
2023-03-29T20:44:28.396Z,99.00
2023-03-29T20:48:10.296Z,99.10
2023-03-29T20:51:58.574Z,99.30
2023-03-29T20:55:40.307Z,98.90
2023-03-29T20:59:22.890Z,99.00
2023-03-29T21:03:04.785Z,98.90
2023-03-29T21:06:49.596Z,99.00
2023-03-29T21:10:31.572Z,99.00
2023-03-29T21:14:14.342Z,99.00
2023-03-29T21:17:56.340Z,99.00
2023-03-29T21:21:38.341Z,99.00
2023-03-29T21:25:20.136Z,99.00
2023-03-29T21:29:01.898Z,98.90
2023-03-29T21:32:43.730Z,99.00
2023-03-29T21:36:26.190Z,99.00
2023-03-29T21:40:10.524Z,99.00
2023-03-29T21:43:52.361Z,99.00
2023-03-29T21:47:34.224Z,99.00
2023-03-29T21:51:16.056Z,99.00
2023-03-29T21:54:57.820Z,98.90
2023-03-29T21:58:39.638Z,98.90
2023-03-29T22:02:21.498Z,98.90
2023-03-29T22:06:07.974Z,98.80
2023-03-29T22:09:49.749Z,98.90
2023-03-29T22:13:31.492Z,98.90
2023-03-29T22:17:13.537Z,99.00
2023-03-29T22:20:55.541Z,99.00
2023-03-29T22:24:37.308Z,99.00
2023-03-29T22:28:19.132Z,99.00
2023-03-29T22:32:01.030Z,98.80
2023-03-29T22:35:42.801Z,98.70
2023-03-29T22:39:24.610Z,98.60
2023-03-29T22:43:06.349Z,98.60
2023-03-29T22:46:48.104Z,98.50
2023-03-29T22:50:29.853Z,98.40
2023-03-29T22:54:12.047Z,98.30
2023-03-29T22:57:53.808Z,98.30
2023-03-29T23:01:35.845Z,98.50
2023-03-29T23:05:17.616Z,98.60
2023-03-29T23:08:59.383Z,98.70
2023-03-29T23:12:42.926Z,98.90
2023-03-29T23:16:25.281Z,98.90
2023-03-29T23:20:08.791Z,98.90
2023-03-29T23:23:50.864Z,98.90
2023-03-29T23:27:33.086Z,99.00
2023-03-29T23:31:18.135Z,99.00
2023-03-29T23:35:00.293Z,99.00
2023-03-29T23:38:44.422Z,99.10
2023-03-29T23:42:26.257Z,99.00
2023-03-29T23:46:11.101Z,99.10
2023-03-29T23:49:53.305Z,99.10
2023-03-29T23:53:35.159Z,98.90
2023-03-29T23:57:16.971Z,98.90
